KJHW

Chautauqua County/Jamestown Airport

Jamestown, New York, USA
METAR KJHW 151310Z AUTO 20006KT 10SM -SN BKN024 M12/M13 A2989 RMK AO2 P0000 FZRANO
Observed Flight Rules
Dec-15 @ 13:10 UTC (57 minutes ago) Marginal Visual Flight Rules
Wind Visibility Clouds Conditions
200° at 6 knots 10 miles
  • Broken at 2,400' AGL
  • Light Snow
Temperatures Readings Precipitation
Current -12°C / 10°F
Dewpoint -13°C / 9°F
Humidity 92%
Altimeter 29.89" Hg
Pressure 1012 hPa
Elevation 525
Current Rain 0.005
METAR KJHW 151310Z AUTO 20006KT 10SM -SN BKN024 M12/M13 A2989 RMK AO2 P0000 FZRANO
Observed Flight Rules
Dec-15 @ 13:10 UTC
(57 minutes ago)
MVFR
Wind Visibility
200° at 6 knots 10 miles
Clouds
  • Broken at 2,400' AGL
Conditions
  • Light Snow
Temperature Dewpoint
-12°C / 10°F -13°C / 9°F
Humidity Altimeter Pressure
92% 29.89" Hg 1012 hPa
Current Rain
0.005